createdAt,value
2023-02-13T00:03:30.398Z,35.95
2023-02-13T00:08:33.592Z,37.33
2023-02-13T00:13:38.139Z,38.28
2023-02-13T00:18:41.271Z,32.78
2023-02-13T00:23:44.385Z,35.25
2023-02-13T00:28:48.871Z,39.58
2023-02-13T00:33:51.968Z,34.92
2023-02-13T00:38:55.480Z,36.88
2023-02-13T00:43:59.966Z,34.28
2023-02-13T00:49:03.398Z,34.95
2023-02-13T00:54:06.858Z,38.25
2023-02-13T00:59:11.361Z,34.65
2023-02-13T01:04:14.428Z,35.20
2023-02-13T01:09:17.601Z,37.72
2023-02-13T01:14:22.286Z,36.45
2023-02-13T01:19:25.738Z,35.22
2023-02-13T01:24:30.166Z,35.17
2023-02-13T01:29:37.845Z,37.15
2023-02-13T01:34:41.036Z,33.72
2023-02-13T01:39:44.129Z,37.60
2023-02-13T01:44:54.072Z,37.42
2023-02-13T01:50:02.949Z,31.77
2023-02-13T01:55:07.169Z,38.47
2023-02-13T02:00:14.708Z,34.60
2023-02-13T02:05:25.335Z,40.35
2023-02-13T02:10:29.264Z,35.72
2023-02-13T02:15:34.370Z,39.58
2023-02-13T02:20:57.072Z,32.33
2023-02-13T02:26:18.303Z,33.58
2023-02-13T02:31:39.945Z,34.85
2023-02-13T02:36:48.683Z,43.58
2023-02-13T02:42:02.986Z,40.97
2023-02-13T02:47:32.370Z,41.63
2023-02-13T02:52:43.044Z,41.60
2023-02-13T02:58:07.689Z,41.33
2023-02-13T03:03:31.597Z,41.50
2023-02-13T03:08:52.369Z,38.05
2023-02-13T03:13:55.818Z,35.15
2023-02-13T03:19:17.610Z,38.92
2023-02-13T03:24:23.585Z,40.25
2023-02-13T03:29:51.862Z,42.80
2023-02-13T03:35:18.708Z,38.50
2023-02-13T03:40:24.644Z,45.03
2023-02-13T03:45:47.717Z,44.70
2023-02-13T03:50:52.488Z,44.70
2023-02-13T03:56:13.970Z,44.35
2023-02-13T04:01:18.912Z,41.25
2023-02-13T04:06:26.094Z,37.00
2023-02-13T04:11:31.693Z,45.05
2023-02-13T04:16:36.768Z,39.67
2023-02-13T04:21:41.692Z,35.97
2023-02-13T04:26:44.989Z,45.90
2023-02-13T04:31:48.183Z,39.83
2023-02-13T04:36:52.756Z,41.38
2023-02-13T04:41:55.856Z,40.75
2023-02-13T04:46:59.029Z,38.88
2023-02-13T04:52:03.534Z,40.92
2023-02-13T04:57:06.656Z,46.75
2023-02-13T05:02:09.796Z,43.58
2023-02-13T05:07:14.307Z,48.65
2023-02-13T05:12:17.462Z,47.20
2023-02-13T05:17:20.761Z,38.80
2023-02-13T05:22:43.092Z,48.75
2023-02-13T05:27:46.181Z,49.33
2023-02-13T05:32:50.861Z,46.83
2023-02-13T05:37:55.323Z,42.25
2023-02-13T05:42:58.529Z,47.65
2023-02-13T05:48:01.621Z,37.85
2023-02-13T05:53:06.137Z,47.63
2023-02-13T05:58:09.653Z,41.10
2023-02-13T06:03:12.782Z,40.70
2023-02-13T06:08:17.236Z,45.17
2023-02-13T06:13:20.341Z,47.78
2023-02-13T06:18:23.935Z,48.33
2023-02-13T06:23:28.593Z,42.17
2023-02-13T06:28:31.801Z,44.70
2023-02-13T06:33:34.957Z,48.38
2023-02-13T06:38:39.671Z,46.78
2023-02-13T06:43:42.804Z,46.97
2023-02-13T06:48:45.961Z,48.25
2023-02-13T06:53:50.599Z,45.75
2023-02-13T06:58:53.687Z,43.70
2023-02-13T07:03:56.789Z,38.90
2023-02-13T07:09:04.136Z,43.25
2023-02-13T07:14:08.168Z,44.97
2023-02-13T07:19:11.474Z,44.38
2023-02-13T07:24:16.122Z,42.42
2023-02-13T07:29:19.494Z,48.50
2023-02-13T07:34:22.605Z,49.08
2023-02-13T07:39:27.492Z,47.58
2023-02-13T07:44:31.679Z,52.22
2023-02-13T07:49:36.976Z,45.38
2023-02-13T07:54:47.900Z,51.58
2023-02-13T07:59:51.499Z,45.50
2023-02-13T08:04:55.087Z,54.25
2023-02-13T08:10:17.335Z,44.15
2023-02-13T08:15:20.707Z,42.05
2023-02-13T08:20:24.869Z,47.83
2023-02-13T08:25:30.185Z,46.88
2023-02-13T08:30:33.602Z,48.88
2023-02-13T08:35:36.903Z,41.55
2023-02-13T08:40:41.691Z,41.53
2023-02-13T08:45:45.037Z,46.58
2023-02-13T08:50:48.375Z,42.53
2023-02-13T08:55:56.322Z,43.35
2023-02-13T09:01:00.211Z,36.83
2023-02-13T09:06:03.712Z,38.58
2023-02-13T09:11:08.435Z,36.45
2023-02-13T09:16:11.778Z,38.67
2023-02-13T09:21:15.280Z,35.35
2023-02-13T09:26:20.853Z,35.55
2023-02-13T09:31:26.316Z,34.45
2023-02-13T09:36:31.112Z,34.38
2023-02-13T09:41:37.434Z,29.85
2023-02-13T09:46:42.127Z,32.97
2023-02-13T09:51:46.947Z,35.55
2023-02-13T09:56:54.923Z,29.88
2023-02-13T10:01:59.128Z,30.25
2023-02-13T10:07:09.442Z,29.80
2023-02-13T10:12:22.448Z,31.13
2023-02-13T10:17:29.822Z,28.80
2023-02-13T10:22:37.178Z,26.38
2023-02-13T10:27:44.873Z,30.67
2023-02-13T10:32:52.124Z,28.38
2023-02-13T10:37:57.226Z,26.75
2023-02-13T10:43:05.976Z,26.27
2023-02-13T10:48:17.265Z,26.20
2023-02-13T10:53:23.890Z,29.73
2023-02-13T10:58:31.574Z,26.95
2023-02-13T11:03:34.794Z,30.38
2023-02-13T11:08:42.061Z,24.30
2023-02-13T11:13:46.629Z,26.33
2023-02-13T11:18:51.031Z,23.58
2023-02-13T11:23:55.429Z,25.30
2023-02-13T11:29:02.196Z,22.95
2023-02-13T11:34:24.281Z,21.38
2023-02-13T11:39:28.121Z,23.35
2023-02-13T11:44:33.562Z,21.65
2023-02-13T11:49:39.104Z,24.67
2023-02-13T11:54:43.547Z,24.55
2023-02-13T11:59:48.808Z,24.10
2023-02-13T12:04:53.100Z,22.52
2023-02-13T12:10:02.014Z,20.55
2023-02-13T12:15:16.281Z,20.92
2023-02-13T12:20:19.772Z,21.02
2023-02-13T12:25:28.037Z,24.98
2023-02-13T12:30:43.171Z,24.30
2023-02-13T12:35:49.239Z,33.95
2023-02-13T12:41:10.051Z,24.77
2023-02-13T12:46:18.000Z,23.33
2023-02-13T12:51:30.970Z,26.38
2023-02-13T12:56:47.275Z,23.55
2023-02-13T13:02:25.561Z,24.48
2023-02-13T13:07:39.317Z,24.50
2023-02-13T13:12:46.610Z,23.20
2023-02-13T13:17:58.445Z,21.88
2023-02-13T13:23:05.047Z,25.38
2023-02-13T13:28:13.059Z,19.73
2023-02-13T13:33:20.009Z,23.33
2023-02-13T13:38:27.113Z,22.27
2023-02-13T13:43:34.878Z,24.67
2023-02-13T13:48:46.702Z,22.25
2023-02-13T13:54:04.715Z,19.98
2023-02-13T13:59:17.851Z,18.65
2023-02-13T14:04:43.644Z,21.23
2023-02-13T14:09:47.401Z,19.60
2023-02-13T14:14:50.859Z,21.38
2023-02-13T14:19:56.798Z,23.25
2023-02-13T14:25:00.959Z,21.40
2023-02-13T14:30:05.611Z,21.63
2023-02-13T14:35:17.913Z,23.80
2023-02-13T14:40:31.876Z,21.80
2023-02-13T14:45:41.929Z,17.83
2023-02-13T14:50:47.942Z,15.27
2023-02-13T14:55:55.081Z,20.83
2023-02-13T15:01:00.614Z,63.40
2023-02-13T15:06:06.812Z,23.00
2023-02-13T15:11:35.710Z,20.83
2023-02-13T15:16:39.018Z,21.90
2023-02-13T15:21:47.798Z,20.95
2023-02-13T15:26:51.982Z,24.05
2023-02-13T15:31:55.518Z,22.65
2023-02-13T15:37:00.327Z,21.63
2023-02-13T15:42:04.339Z,22.90
2023-02-13T15:47:09.220Z,22.42
2023-02-13T15:52:17.912Z,21.45
2023-02-13T15:57:21.934Z,22.08
2023-02-13T16:02:29.755Z,57.75
2023-02-13T16:07:48.199Z,22.25
2023-02-13T16:12:51.382Z,24.90
2023-02-13T16:17:54.978Z,21.70
2023-02-13T16:23:02.184Z,27.23
2023-02-13T16:28:14.027Z,28.52
2023-02-13T16:33:24.847Z,23.45
2023-02-13T16:38:31.300Z,27.40
2023-02-13T16:43:45.619Z,25.23
2023-02-13T16:48:49.993Z,26.70
2023-02-13T16:53:59.534Z,25.20
2023-02-13T16:59:07.615Z,24.88
2023-02-13T17:04:16.505Z,24.42
2023-02-13T17:09:21.039Z,27.67
2023-02-13T17:14:24.378Z,24.70
2023-02-13T17:19:30.135Z,66.95
2023-02-13T17:24:34.947Z,32.13
2023-02-13T17:29:38.347Z,31.83
2023-02-13T17:34:41.540Z,29.38
2023-02-13T17:39:46.661Z,36.40
2023-02-13T17:44:50.130Z,33.75
2023-02-13T17:49:59.179Z,42.30
2023-02-13T17:55:07.452Z,35.58
2023-02-13T18:00:11.243Z,37.67
2023-02-13T18:05:18.181Z,36.83
2023-02-13T18:10:24.424Z,36.17
2023-02-13T18:15:29.861Z,37.95
2023-02-13T18:20:34.192Z,41.85
2023-02-13T18:25:38.770Z,38.13
2023-02-13T18:30:42.990Z,44.13
2023-02-13T18:35:46.397Z,43.05
2023-02-13T18:40:51.017Z,43.03
2023-02-13T18:45:54.452Z,39.10
2023-02-13T18:51:00.071Z,42.35
2023-02-13T18:56:06.347Z,45.28
2023-02-13T19:01:10.764Z,46.08
2023-02-13T19:06:15.029Z,45.63
2023-02-13T19:11:20.718Z,44.00
2023-02-13T19:16:24.767Z,39.08
2023-02-13T19:21:28.928Z,41.67
2023-02-13T19:26:34.881Z,40.75
2023-02-13T19:31:38.195Z,45.53
2023-02-13T19:36:41.708Z,43.65
2023-02-13T19:41:46.498Z,38.78
2023-02-13T19:46:50.166Z,46.58
2023-02-13T19:51:53.805Z,40.97
2023-02-13T19:57:00.446Z,46.95
2023-02-13T20:02:03.791Z,48.42
2023-02-13T20:07:08.042Z,41.35
2023-02-13T20:12:12.899Z,46.80
2023-02-13T20:17:16.605Z,40.28
2023-02-13T20:22:20.090Z,46.65
2023-02-13T20:27:24.612Z,48.80
2023-02-13T20:32:27.779Z,49.22
2023-02-13T20:37:31.418Z,47.63
2023-02-13T20:42:35.898Z,44.22
2023-02-13T20:47:40.530Z,50.30
2023-02-13T20:52:43.725Z,50.70
2023-02-13T20:57:48.463Z,50.22
2023-02-13T21:02:51.885Z,52.55
2023-02-13T21:07:55.282Z,48.30
2023-02-13T21:12:59.965Z,55.65
2023-02-13T21:18:03.630Z,47.05
2023-02-13T21:23:06.918Z,42.17
2023-02-13T21:28:11.600Z,44.70
2023-02-13T21:33:14.824Z,43.63
2023-02-13T21:38:19.509Z,47.20
2023-02-13T21:43:24.625Z,39.67
2023-02-13T21:48:28.061Z,42.92
2023-02-13T21:53:32.090Z,42.15
2023-02-13T21:58:37.273Z,41.25
2023-02-13T22:03:40.714Z,40.67
2023-02-13T22:08:44.634Z,42.58
2023-02-13T22:13:49.311Z,40.25
2023-02-13T22:18:52.787Z,37.88
2023-02-13T22:23:55.971Z,39.70
2023-02-13T22:29:01.925Z,37.95
2023-02-13T22:34:06.022Z,39.40
2023-02-13T22:39:10.156Z,40.78
2023-02-13T22:44:14.676Z,41.25
2023-02-13T22:49:17.777Z,34.58
2023-02-13T22:54:20.852Z,39.55
2023-02-13T22:59:25.507Z,39.85
2023-02-13T23:04:28.616Z,37.38
2023-02-13T23:09:31.711Z,38.40
2023-02-13T23:14:36.142Z,38.65
2023-02-13T23:19:39.338Z,37.47
2023-02-13T23:24:42.522Z,41.40
2023-02-13T23:29:46.948Z,36.85
2023-02-13T23:34:50.078Z,36.05
2023-02-13T23:39:53.207Z,37.45
2023-02-13T23:44:57.745Z,41.28
2023-02-13T23:50:00.898Z,38.17
2023-02-13T23:55:04.027Z,39.42
